sensor_id;sensor_type;location;lat;lon;timestamp;temperature;humidity
33564;DHT22;19894;48.452;11.494;2022-09-27T00:01:07;20.30;51.40
33564;DHT22;19894;48.452;11.494;2022-09-27T00:03:33;20.30;50.80
33564;DHT22;19894;48.452;11.494;2022-09-27T00:06:23;20.30;50.80
33564;DHT22;19894;48.452;11.494;2022-09-27T00:08:49;20.30;50.80
33564;DHT22;19894;48.452;11.494;2022-09-27T00:11:28;20.30;50.80
33564;DHT22;19894;48.452;11.494;2022-09-27T00:13:55;20.20;50.80
33564;DHT22;19894;48.452;11.494;2022-09-27T00:16:22;20.30;50.80
33564;DHT22;19894;48.452;11.494;2022-09-27T00:18:49;20.30;50.80
33564;DHT22;19894;48.452;11.494;2022-09-27T00:21:15;20.30;50.80
33564;DHT22;19894;48.452;11.494;2022-09-27T00:23:40;20.30;50.80
33564;DHT22;19894;48.452;11.494;2022-09-27T00:26:09;20.30;50.80
33564;DHT22;19894;48.452;11.494;2022-09-27T00:28:35;20.30;50.80
33564;DHT22;19894;48.452;11.494;2022-09-27T00:31:01;20.30;50.80
33564;DHT22;19894;48.452;11.494;2022-09-27T00:33:27;20.30;50.80
33564;DHT22;19894;48.452;11.494;2022-09-27T00:35:52;20.30;50.80
33564;DHT22;19894;48.452;11.494;2022-09-27T00:38:18;20.30;50.80
33564;DHT22;19894;48.452;11.494;2022-09-27T00:40:44;20.30;50.70
33564;DHT22;19894;48.452;11.494;2022-09-27T00:43:16;20.30;50.80
33564;DHT22;19894;48.452;11.494;2022-09-27T00:45:44;20.30;50.80
33564;DHT22;19894;48.452;11.494;2022-09-27T00:48:14;20.30;50.80
33564;DHT22;19894;48.452;11.494;2022-09-27T00:50:45;20.30;50.80
33564;DHT22;19894;48.452;11.494;2022-09-27T00:53:21;20.30;50.80
33564;DHT22;19894;48.452;11.494;2022-09-27T00:55:52;20.30;50.80
33564;DHT22;19894;48.452;11.494;2022-09-27T00:58:21;20.30;50.80
33564;DHT22;19894;48.452;11.494;2022-09-27T01:00:51;20.30;50.80
33564;DHT22;19894;48.452;11.494;2022-09-27T01:03:33;20.30;50.80
33564;DHT22;19894;48.452;11.494;2022-09-27T01:06:01;20.30;50.80
33564;DHT22;19894;48.452;11.494;2022-09-27T01:08:27;20.30;50.90
33564;DHT22;19894;48.452;11.494;2022-09-27T01:14:00;20.20;50.80
33564;DHT22;19894;48.452;11.494;2022-09-27T01:16:46;20.30;50.90
33564;DHT22;19894;48.452;11.494;2022-09-27T01:22:17;20.30;50.90
33564;DHT22;19894;48.452;11.494;2022-09-27T01:25:02;20.30;50.90
33564;DHT22;19894;48.452;11.494;2022-09-27T01:27:41;20.30;50.90
33564;DHT22;19894;48.452;11.494;2022-09-27T01:30:26;20.20;50.90
33564;DHT22;19894;48.452;11.494;2022-09-27T01:44:11;20.30;51.00
33564;DHT22;19894;48.452;11.494;2022-09-27T01:46:44;20.30;50.90
33564;DHT22;19894;48.452;11.494;2022-09-27T01:49:17;20.30;51.00
33564;DHT22;19894;48.452;11.494;2022-09-27T01:51:54;20.30;51.00
33564;DHT22;19894;48.452;11.494;2022-09-27T01:54:25;20.30;51.00
33564;DHT22;19894;48.452;11.494;2022-09-27T01:56:55;20.30;51.00
33564;DHT22;19894;48.452;11.494;2022-09-27T01:59:33;20.30;51.50
33564;DHT22;19894;48.452;11.494;2022-09-27T02:02:03;20.20;50.90
33564;DHT22;19894;48.452;11.494;2022-09-27T02:04:32;20.30;51.00
33564;DHT22;19894;48.452;11.494;2022-09-27T02:07:09;20.30;51.00
33564;DHT22;19894;48.452;11.494;2022-09-27T02:09:44;20.30;51.00
33564;DHT22;19894;48.452;11.494;2022-09-27T02:12:14;20.30;51.00
33564;DHT22;19894;48.452;11.494;2022-09-27T02:14:48;20.30;51.00
33564;DHT22;19894;48.452;11.494;2022-09-27T02:17:37;20.30;51.00
33564;DHT22;19894;48.452;11.494;2022-09-27T02:20:07;20.30;51.10
33564;DHT22;19894;48.452;11.494;2022-09-27T02:22:44;20.30;51.00
33564;DHT22;19894;48.452;11.494;2022-09-27T02:25:25;20.30;51.00
33564;DHT22;19894;48.452;11.494;2022-09-27T02:30:43;20.30;51.00
33564;DHT22;19894;48.452;11.494;2022-09-27T02:33:09;20.30;51.10
33564;DHT22;19894;48.452;11.494;2022-09-27T02:35:35;20.30;51.60
33564;DHT22;19894;48.452;11.494;2022-09-27T02:38:02;20.30;51.10
33564;DHT22;19894;48.452;11.494;2022-09-27T02:40:34;20.30;51.10
33564;DHT22;19894;48.452;11.494;2022-09-27T02:43:02;20.30;51.10
33564;DHT22;19894;48.452;11.494;2022-09-27T02:45:35;20.30;51.10
33564;DHT22;19894;48.452;11.494;2022-09-27T02:48:21;20.30;51.10
33564;DHT22;19894;48.452;11.494;2022-09-27T02:51:06;20.30;51.10
33564;DHT22;19894;48.452;11.494;2022-09-27T02:59:19;20.30;51.10
33564;DHT22;19894;48.452;11.494;2022-09-27T03:04:52;20.30;51.10
33564;DHT22;19894;48.452;11.494;2022-09-27T03:07:20;20.30;51.10
33564;DHT22;19894;48.452;11.494;2022-09-27T03:09:48;20.30;51.10
33564;DHT22;19894;48.452;11.494;2022-09-27T03:12:16;20.30;51.20
33564;DHT22;19894;48.452;11.494;2022-09-27T03:14:51;20.30;51.10
33564;DHT22;19894;48.452;11.494;2022-09-27T03:17:16;20.30;51.10
33564;DHT22;19894;48.452;11.494;2022-09-27T03:19:42;20.30;51.10
33564;DHT22;19894;48.452;11.494;2022-09-27T03:22:07;20.30;51.20
33564;DHT22;19894;48.452;11.494;2022-09-27T03:24:33;20.30;51.10
33564;DHT22;19894;48.452;11.494;2022-09-27T03:26:59;20.30;51.10
33564;DHT22;19894;48.452;11.494;2022-09-27T03:29:24;20.30;51.10
33564;DHT22;19894;48.452;11.494;2022-09-27T03:31:50;20.30;51.10
33564;DHT22;19894;48.452;11.494;2022-09-27T03:34:15;20.30;51.10
33564;DHT22;19894;48.452;11.494;2022-09-27T03:36:41;20.30;51.10
33564;DHT22;19894;48.452;11.494;2022-09-27T03:39:07;20.30;51.10
33564;DHT22;19894;48.452;11.494;2022-09-27T03:41:33;20.30;51.10
33564;DHT22;19894;48.452;11.494;2022-09-27T03:43:58;20.30;51.10
33564;DHT22;19894;48.452;11.494;2022-09-27T03:46:24;20.30;51.10
33564;DHT22;19894;48.452;11.494;2022-09-27T03:48:50;20.30;51.10
33564;DHT22;19894;48.452;11.494;2022-09-27T03:51:16;20.30;51.10
33564;DHT22;19894;48.452;11.494;2022-09-27T03:53:42;20.30;51.10
33564;DHT22;19894;48.452;11.494;2022-09-27T03:56:08;20.30;51.10
33564;DHT22;19894;48.452;11.494;2022-09-27T03:58:34;20.30;51.10
33564;DHT22;19894;48.452;11.494;2022-09-27T04:01:00;20.30;51.10
33564;DHT22;19894;48.452;11.494;2022-09-27T04:03:25;20.30;51.20
33564;DHT22;19894;48.452;11.494;2022-09-27T04:05:52;20.30;51.20
33564;DHT22;19894;48.452;11.494;2022-09-27T04:08:18;20.30;51.20
33564;DHT22;19894;48.452;11.494;2022-09-27T04:10:43;20.30;51.20
33564;DHT22;19894;48.452;11.494;2022-09-27T04:13:09;20.30;51.20
33564;DHT22;19894;48.452;11.494;2022-09-27T04:15:35;20.30;51.20
33564;DHT22;19894;48.452;11.494;2022-09-27T04:18:04;20.30;51.20
33564;DHT22;19894;48.452;11.494;2022-09-27T04:20:29;20.30;51.20
33564;DHT22;19894;48.452;11.494;2022-09-27T04:22:55;20.30;51.20
33564;DHT22;19894;48.452;11.494;2022-09-27T04:25:20;20.30;51.20
33564;DHT22;19894;48.452;11.494;2022-09-27T04:27:46;20.30;51.20
33564;DHT22;19894;48.452;11.494;2022-09-27T04:30:13;20.20;51.10
33564;DHT22;19894;48.452;11.494;2022-09-27T04:32:43;20.30;51.20
33564;DHT22;19894;48.452;11.494;2022-09-27T04:35:10;20.30;51.20
33564;DHT22;19894;48.452;11.494;2022-09-27T04:38:12;20.30;51.20
33564;DHT22;19894;48.452;11.494;2022-09-27T04:40:38;20.30;51.20
33564;DHT22;19894;48.452;11.494;2022-09-27T04:43:04;20.30;51.20
33564;DHT22;19894;48.452;11.494;2022-09-27T04:45:30;20.30;51.20
33564;DHT22;19894;48.452;11.494;2022-09-27T04:47:55;20.30;51.20
33564;DHT22;19894;48.452;11.494;2022-09-27T04:50:21;20.30;51.10
33564;DHT22;19894;48.452;11.494;2022-09-27T04:52:51;20.30;51.20
33564;DHT22;19894;48.452;11.494;2022-09-27T04:55:18;20.30;51.20
33564;DHT22;19894;48.452;11.494;2022-09-27T04:57:45;20.30;51.20
33564;DHT22;19894;48.452;11.494;2022-09-27T05:00:11;20.30;51.20
33564;DHT22;19894;48.452;11.494;2022-09-27T05:02:37;20.30;51.20
33564;DHT22;19894;48.452;11.494;2022-09-27T05:05:02;20.30;51.20
33564;DHT22;19894;48.452;11.494;2022-09-27T05:07:28;20.30;51.20
33564;DHT22;19894;48.452;11.494;2022-09-27T05:09:54;20.30;51.20
33564;DHT22;19894;48.452;11.494;2022-09-27T05:12:21;20.30;51.20
33564;DHT22;19894;48.452;11.494;2022-09-27T05:14:47;20.20;51.10
33564;DHT22;19894;48.452;11.494;2022-09-27T05:17:13;20.30;51.20
33564;DHT22;19894;48.452;11.494;2022-09-27T05:19:38;20.30;51.20
33564;DHT22;19894;48.452;11.494;2022-09-27T05:22:05;20.20;51.10
33564;DHT22;19894;48.452;11.494;2022-09-27T05:24:31;20.30;51.20
33564;DHT22;19894;48.452;11.494;2022-09-27T05:26:58;20.30;51.20
33564;DHT22;19894;48.452;11.494;2022-09-27T05:29:24;20.30;51.20
33564;DHT22;19894;48.452;11.494;2022-09-27T05:31:49;20.30;51.20
33564;DHT22;19894;48.452;11.494;2022-09-27T05:34:15;20.30;51.20
33564;DHT22;19894;48.452;11.494;2022-09-27T05:36:42;20.30;51.20
33564;DHT22;19894;48.452;11.494;2022-09-27T05:39:08;20.30;51.20
33564;DHT22;19894;48.452;11.494;2022-09-27T05:41:33;20.30;51.20
33564;DHT22;19894;48.452;11.494;2022-09-27T05:43:59;20.30;51.20
33564;DHT22;19894;48.452;11.494;2022-09-27T05:46:25;20.30;51.20
33564;DHT22;19894;48.452;11.494;2022-09-27T05:48:51;20.30;51.20
33564;DHT22;19894;48.452;11.494;2022-09-27T05:51:16;20.30;51.20
33564;DHT22;19894;48.452;11.494;2022-09-27T05:53:43;20.30;51.20
33564;DHT22;19894;48.452;11.494;2022-09-27T05:56:09;20.30;51.20
33564;DHT22;19894;48.452;11.494;2022-09-27T05:58:34;20.30;51.20
33564;DHT22;19894;48.452;11.494;2022-09-27T06:01:00;20.20;51.20
33564;DHT22;19894;48.452;11.494;2022-09-27T06:03:25;20.30;51.20
33564;DHT22;19894;48.452;11.494;2022-09-27T06:05:51;20.30;51.20
33564;DHT22;19894;48.452;11.494;2022-09-27T06:08:17;20.30;51.30
33564;DHT22;19894;48.452;11.494;2022-09-27T06:10:44;20.30;51.20
33564;DHT22;19894;48.452;11.494;2022-09-27T06:13:13;20.30;51.20
33564;DHT22;19894;48.452;11.494;2022-09-27T06:15:41;20.30;51.20
33564;DHT22;19894;48.452;11.494;2022-09-27T06:18:09;20.30;51.20
33564;DHT22;19894;48.452;11.494;2022-09-27T06:20:36;20.30;51.30
33564;DHT22;19894;48.452;11.494;2022-09-27T06:23:12;20.30;51.30
33564;DHT22;19894;48.452;11.494;2022-09-27T06:25:39;20.30;51.20
33564;DHT22;19894;48.452;11.494;2022-09-27T06:28:05;20.30;51.20
33564;DHT22;19894;48.452;11.494;2022-09-27T06:30:31;20.20;51.20
33564;DHT22;19894;48.452;11.494;2022-09-27T06:33:01;20.20;51.20
33564;DHT22;19894;48.452;11.494;2022-09-27T06:35:28;20.20;51.20
33564;DHT22;19894;48.452;11.494;2022-09-27T06:37:54;20.20;51.20
33564;DHT22;19894;48.452;11.494;2022-09-27T06:40:20;20.20;51.20
33564;DHT22;19894;48.452;11.494;2022-09-27T06:42:47;20.30;51.20
33564;DHT22;19894;48.452;11.494;2022-09-27T06:45:14;20.20;51.20
33564;DHT22;19894;48.452;11.494;2022-09-27T06:47:40;20.30;51.30
33564;DHT22;19894;48.452;11.494;2022-09-27T06:50:06;20.30;51.30
33564;DHT22;19894;48.452;11.494;2022-09-27T06:52:32;20.30;51.20
33564;DHT22;19894;48.452;11.494;2022-09-27T06:54:59;20.20;51.20
33564;DHT22;19894;48.452;11.494;2022-09-27T06:57:25;20.30;51.20
33564;DHT22;19894;48.452;11.494;2022-09-27T07:00:10;20.20;51.20
33564;DHT22;19894;48.452;11.494;2022-09-27T07:02:49;20.20;51.20
33564;DHT22;19894;48.452;11.494;2022-09-27T07:05:15;20.30;51.20
33564;DHT22;19894;48.452;11.494;2022-09-27T07:07:42;20.20;51.20
33564;DHT22;19894;48.452;11.494;2022-09-27T07:10:11;20.20;51.20
33564;DHT22;19894;48.452;11.494;2022-09-27T07:12:37;20.30;51.20
33564;DHT22;19894;48.452;11.494;2022-09-27T07:15:03;20.20;51.20
33564;DHT22;19894;48.452;11.494;2022-09-27T07:17:29;20.30;51.20
33564;DHT22;19894;48.452;11.494;2022-09-27T07:19:55;20.30;51.20
33564;DHT22;19894;48.452;11.494;2022-09-27T07:22:21;20.20;51.20
33564;DHT22;19894;48.452;11.494;2022-09-27T07:24:46;20.30;51.20
33564;DHT22;19894;48.452;11.494;2022-09-27T07:27:12;20.30;51.20
33564;DHT22;19894;48.452;11.494;2022-09-27T07:29:38;20.20;51.10
33564;DHT22;19894;48.452;11.494;2022-09-27T07:32:03;20.20;51.10
33564;DHT22;19894;48.452;11.494;2022-09-27T07:34:29;20.30;51.20
33564;DHT22;19894;48.452;11.494;2022-09-27T07:37:00;20.20;51.10
33564;DHT22;19894;48.452;11.494;2022-09-27T07:39:25;20.20;51.20
33564;DHT22;19894;48.452;11.494;2022-09-27T07:41:51;20.20;51.10
33564;DHT22;19894;48.452;11.494;2022-09-27T07:44:17;20.20;51.10
33564;DHT22;19894;48.452;11.494;2022-09-27T07:46:42;20.30;51.20
33564;DHT22;19894;48.452;11.494;2022-09-27T07:49:08;20.20;51.10
33564;DHT22;19894;48.452;11.494;2022-09-27T07:51:34;20.30;51.10
33564;DHT22;19894;48.452;11.494;2022-09-27T07:53:59;20.20;51.10
33564;DHT22;19894;48.452;11.494;2022-09-27T07:56:28;20.20;51.10
33564;DHT22;19894;48.452;11.494;2022-09-27T07:58:53;20.30;51.10
33564;DHT22;19894;48.452;11.494;2022-09-27T08:01:19;20.30;51.10
33564;DHT22;19894;48.452;11.494;2022-09-27T08:03:45;20.30;51.10
33564;DHT22;19894;48.452;11.494;2022-09-27T08:06:11;20.20;51.00
33564;DHT22;19894;48.452;11.494;2022-09-27T08:08:37;20.20;51.00
33564;DHT22;19894;48.452;11.494;2022-09-27T08:11:16;20.30;51.10
33564;DHT22;19894;48.452;11.494;2022-09-27T08:13:42;20.20;51.00
33564;DHT22;19894;48.452;11.494;2022-09-27T08:16:08;20.20;51.00
33564;DHT22;19894;48.452;11.494;2022-09-27T08:18:35;20.20;51.00
33564;DHT22;19894;48.452;11.494;2022-09-27T08:21:01;20.30;51.00
33564;DHT22;19894;48.452;11.494;2022-09-27T08:23:27;20.20;51.00
33564;DHT22;19894;48.452;11.494;2022-09-27T08:25:59;20.30;51.50
33564;DHT22;19894;48.452;11.494;2022-09-27T08:28:26;20.20;50.90
33564;DHT22;19894;48.452;11.494;2022-09-27T08:30:51;20.20;50.90
33564;DHT22;19894;48.452;11.494;2022-09-27T08:33:17;20.20;50.90
33564;DHT22;19894;48.452;11.494;2022-09-27T08:35:43;20.30;51.00
33564;DHT22;19894;48.452;11.494;2022-09-27T08:38:09;20.20;50.90
33564;DHT22;19894;48.452;11.494;2022-09-27T08:40:56;20.20;50.90
33564;DHT22;19894;48.452;11.494;2022-09-27T08:47:13;20.20;50.90
33564;DHT22;19894;48.452;11.494;2022-09-27T08:52:19;20.20;50.90
33564;DHT22;19894;48.452;11.494;2022-09-27T08:54:48;20.20;51.40
33564;DHT22;19894;48.452;11.494;2022-09-27T08:57:15;20.20;50.90
33564;DHT22;19894;48.452;11.494;2022-09-27T09:00:05;20.20;50.90
33564;DHT22;19894;48.452;11.494;2022-09-27T09:02:33;20.30;50.80
33564;DHT22;19894;48.452;11.494;2022-09-27T09:05:10;20.30;50.60
33564;DHT22;19894;48.452;11.494;2022-09-27T09:13:52;20.30;50.60
33564;DHT22;19894;48.452;11.494;2022-09-27T09:16:33;20.30;50.50
33564;DHT22;19894;48.452;11.494;2022-09-27T09:21:58;20.30;50.20
33564;DHT22;19894;48.452;11.494;2022-09-27T09:24:47;20.30;50.30
33564;DHT22;19894;48.452;11.494;2022-09-27T09:27:39;20.30;50.20
33564;DHT22;19894;48.452;11.494;2022-09-27T09:30:17;20.30;50.20
33564;DHT22;19894;48.452;11.494;2022-09-27T09:35:44;20.30;50.20
33564;DHT22;19894;48.452;11.494;2022-09-27T09:38:17;20.30;50.20
33564;DHT22;19894;48.452;11.494;2022-09-27T09:40:49;20.30;49.90
33564;DHT22;19894;48.452;11.494;2022-09-27T09:43:27;20.30;49.90
33564;DHT22;19894;48.452;11.494;2022-09-27T09:46:08;20.20;49.70
33564;DHT22;19894;48.452;11.494;2022-09-27T09:48:53;20.30;49.70
33564;DHT22;19894;48.452;11.494;2022-09-27T09:51:23;20.30;49.60
33564;DHT22;19894;48.452;11.494;2022-09-27T09:56:30;20.30;49.20
33564;DHT22;19894;48.452;11.494;2022-09-27T09:58:59;20.30;49.00
33564;DHT22;19894;48.452;11.494;2022-09-27T10:01:41;20.30;49.20
33564;DHT22;19894;48.452;11.494;2022-09-27T10:04:21;20.30;49.00
33564;DHT22;19894;48.452;11.494;2022-09-27T10:06:47;20.30;48.90
33564;DHT22;19894;48.452;11.494;2022-09-27T10:09:14;20.30;48.90
33564;DHT22;19894;48.452;11.494;2022-09-27T10:11:43;20.30;48.90
33564;DHT22;19894;48.452;11.494;2022-09-27T10:14:11;20.30;49.00
33564;DHT22;19894;48.452;11.494;2022-09-27T10:16:38;20.30;49.00
33564;DHT22;19894;48.452;11.494;2022-09-27T10:19:08;20.30;49.00
33564;DHT22;19894;48.452;11.494;2022-09-27T10:21:39;20.30;49.10
33564;DHT22;19894;48.452;11.494;2022-09-27T10:24:16;20.30;49.10
33564;DHT22;19894;48.452;11.494;2022-09-27T10:26:45;20.30;49.10
33564;DHT22;19894;48.452;11.494;2022-09-27T10:29:31;20.30;49.10
33564;DHT22;19894;48.452;11.494;2022-09-27T10:31:59;20.30;49.10
33564;DHT22;19894;48.452;11.494;2022-09-27T10:34:30;20.30;49.00
33564;DHT22;19894;48.452;11.494;2022-09-27T10:39:37;20.30;49.10
33564;DHT22;19894;48.452;11.494;2022-09-27T10:44:47;20.30;49.00
33564;DHT22;19894;48.452;11.494;2022-09-27T10:47:17;20.30;49.10
33564;DHT22;19894;48.452;11.494;2022-09-27T10:49:47;20.30;49.20
33564;DHT22;19894;48.452;11.494;2022-09-27T10:52:19;20.30;48.90
33564;DHT22;19894;48.452;11.494;2022-09-27T10:54:54;20.30;48.70
33564;DHT22;19894;48.452;11.494;2022-09-27T10:57:22;20.30;48.90
33564;DHT22;19894;48.452;11.494;2022-09-27T11:00:02;20.30;48.50
33564;DHT22;19894;48.452;11.494;2022-09-27T11:02:34;20.30;48.40
33564;DHT22;19894;48.452;11.494;2022-09-27T11:05:04;20.30;48.20
33564;DHT22;19894;48.452;11.494;2022-09-27T11:07:30;20.30;48.30
33564;DHT22;19894;48.452;11.494;2022-09-27T11:09:57;20.30;48.20
33564;DHT22;19894;48.452;11.494;2022-09-27T11:12:28;20.30;48.20
33564;DHT22;19894;48.452;11.494;2022-09-27T11:15:03;20.30;48.20
33564;DHT22;19894;48.452;11.494;2022-09-27T11:23:25;20.30;48.00
33564;DHT22;19894;48.452;11.494;2022-09-27T11:28:37;20.30;48.80
33564;DHT22;19894;48.452;11.494;2022-09-27T11:34:18;20.30;48.40
33564;DHT22;19894;48.452;11.494;2022-09-27T11:39:58;20.30;48.40
33564;DHT22;19894;48.452;11.494;2022-09-27T11:42:38;20.30;48.70
33564;DHT22;19894;48.452;11.494;2022-09-27T11:45:33;20.30;48.70
33564;DHT22;19894;48.452;11.494;2022-09-27T12:07:29;20.30;48.20
33564;DHT22;19894;48.452;11.494;2022-09-27T12:10:03;20.30;47.90
33564;DHT22;19894;48.452;11.494;2022-09-27T12:12:31;20.30;47.60
33564;DHT22;19894;48.452;11.494;2022-09-27T12:15:05;20.30;47.60
33564;DHT22;19894;48.452;11.494;2022-09-27T12:17:39;20.30;47.60
33564;DHT22;19894;48.452;11.494;2022-09-27T12:20:17;20.30;47.60
33564;DHT22;19894;48.452;11.494;2022-09-27T12:22:49;20.30;47.70
33564;DHT22;19894;48.452;11.494;2022-09-27T12:25:17;20.30;47.70
33564;DHT22;19894;48.452;11.494;2022-09-27T12:27:50;20.30;47.80
33564;DHT22;19894;48.452;11.494;2022-09-27T12:30:18;20.30;47.90
33564;DHT22;19894;48.452;11.494;2022-09-27T12:35:25;20.30;48.10
33564;DHT22;19894;48.452;11.494;2022-09-27T12:38:14;20.30;48.10
33564;DHT22;19894;48.452;11.494;2022-09-27T12:40:45;20.30;48.20
33564;DHT22;19894;48.452;11.494;2022-09-27T12:48:52;20.30;48.20
33564;DHT22;19894;48.452;11.494;2022-09-27T12:51:21;20.30;48.20
33564;DHT22;19894;48.452;11.494;2022-09-27T12:56:38;20.30;48.40
33564;DHT22;19894;48.452;11.494;2022-09-27T13:08:17;20.30;48.40
33564;DHT22;19894;48.452;11.494;2022-09-27T13:13:24;20.30;48.10
33564;DHT22;19894;48.452;11.494;2022-09-27T13:15:56;20.30;47.90
33564;DHT22;19894;48.452;11.494;2022-09-27T13:18:49;20.30;47.50
33564;DHT22;19894;48.452;11.494;2022-09-27T13:35:35;20.30;47.50
33564;DHT22;19894;48.452;11.494;2022-09-27T13:38:02;20.30;47.40
33564;DHT22;19894;48.452;11.494;2022-09-27T13:40:33;20.30;47.60
33564;DHT22;19894;48.452;11.494;2022-09-27T13:45:38;20.30;47.80
33564;DHT22;19894;48.452;11.494;2022-09-27T13:48:31;20.30;47.90
33564;DHT22;19894;48.452;11.494;2022-09-27T13:51:35;20.30;47.90
33564;DHT22;19894;48.452;11.494;2022-09-27T13:54:34;20.30;48.00
33564;DHT22;19894;48.452;11.494;2022-09-27T13:56:53;20.30;48.10
33564;DHT22;19894;48.452;11.494;2022-09-27T13:59:43;20.30;48.10
33564;DHT22;19894;48.452;11.494;2022-09-27T14:02:27;20.30;48.10
33564;DHT22;19894;48.452;11.494;2022-09-27T14:04:55;20.30;48.10
33564;DHT22;19894;48.452;11.494;2022-09-27T14:07:25;20.30;48.30
33564;DHT22;19894;48.452;11.494;2022-09-27T14:09:53;20.30;48.10
33564;DHT22;19894;48.452;11.494;2022-09-27T14:12:34;20.30;48.00
33564;DHT22;19894;48.452;11.494;2022-09-27T14:15:03;20.30;48.00
33564;DHT22;19894;48.452;11.494;2022-09-27T14:17:30;20.30;47.90
33564;DHT22;19894;48.452;11.494;2022-09-27T14:19:55;20.30;48.00
33564;DHT22;19894;48.452;11.494;2022-09-27T14:22:22;20.30;47.70
33564;DHT22;19894;48.452;11.494;2022-09-27T14:24:50;20.30;47.40
33564;DHT22;19894;48.452;11.494;2022-09-27T14:29:58;20.30;47.30
33564;DHT22;19894;48.452;11.494;2022-09-27T14:32:29;20.30;47.20
33564;DHT22;19894;48.452;11.494;2022-09-27T14:37:54;20.30;47.10
33564;DHT22;19894;48.452;11.494;2022-09-27T14:40:21;20.30;47.10
33564;DHT22;19894;48.452;11.494;2022-09-27T14:42:52;20.30;47.10
33564;DHT22;19894;48.452;11.494;2022-09-27T14:45:35;20.30;47.10
33564;DHT22;19894;48.452;11.494;2022-09-27T14:48:16;20.30;47.20
33564;DHT22;19894;48.452;11.494;2022-09-27T14:50:58;20.30;47.70
33564;DHT22;19894;48.452;11.494;2022-09-27T14:53:32;20.30;47.40
33564;DHT22;19894;48.452;11.494;2022-09-27T14:56:00;20.30;47.60
33564;DHT22;19894;48.452;11.494;2022-09-27T14:58:26;20.30;47.60
33564;DHT22;19894;48.452;11.494;2022-09-27T15:00:54;20.30;47.70
33564;DHT22;19894;48.452;11.494;2022-09-27T15:03:27;20.30;47.80
33564;DHT22;19894;48.452;11.494;2022-09-27T15:05:54;20.30;47.80
33564;DHT22;19894;48.452;11.494;2022-09-27T15:08:22;20.30;47.90
33564;DHT22;19894;48.452;11.494;2022-09-27T15:10:49;20.30;47.90
33564;DHT22;19894;48.452;11.494;2022-09-27T15:13:16;20.30;47.90
33564;DHT22;19894;48.452;11.494;2022-09-27T15:15:43;20.30;47.70
33564;DHT22;19894;48.452;11.494;2022-09-27T15:18:38;20.30;47.80
33564;DHT22;19894;48.452;11.494;2022-09-27T15:21:26;20.30;47.70
33564;DHT22;19894;48.452;11.494;2022-09-27T15:23:52;20.30;47.80
33564;DHT22;19894;48.452;11.494;2022-09-27T15:26:23;20.30;47.60
33564;DHT22;19894;48.452;11.494;2022-09-27T15:28:51;20.30;47.40
33564;DHT22;19894;48.452;11.494;2022-09-27T15:31:27;20.30;47.20
33564;DHT22;19894;48.452;11.494;2022-09-27T15:33:54;20.30;47.20
33564;DHT22;19894;48.452;11.494;2022-09-27T15:39:16;20.30;47.20
33564;DHT22;19894;48.452;11.494;2022-09-27T15:44:43;20.30;47.40
33564;DHT22;19894;48.452;11.494;2022-09-27T15:52:53;20.30;47.50
33564;DHT22;19894;48.452;11.494;2022-09-27T15:55:25;20.30;47.50
33564;DHT22;19894;48.452;11.494;2022-09-27T15:58:06;20.30;47.70
33564;DHT22;19894;48.452;11.494;2022-09-27T16:00:33;20.30;47.60
33564;DHT22;19894;48.452;11.494;2022-09-27T16:03:00;20.30;47.70
33564;DHT22;19894;48.452;11.494;2022-09-27T16:05:26;20.30;47.70
33564;DHT22;19894;48.452;11.494;2022-09-27T16:07:52;20.30;47.70
33564;DHT22;19894;48.452;11.494;2022-09-27T16:10:25;20.30;47.70
33564;DHT22;19894;48.452;11.494;2022-09-27T16:12:52;20.30;47.90
33564;DHT22;19894;48.452;11.494;2022-09-27T16:15:18;20.30;47.80
33564;DHT22;19894;48.452;11.494;2022-09-27T16:17:43;20.30;47.80
33564;DHT22;19894;48.452;11.494;2022-09-27T16:20:24;20.30;47.80
33564;DHT22;19894;48.452;11.494;2022-09-27T16:22:51;20.30;47.90
33564;DHT22;19894;48.452;11.494;2022-09-27T16:25:17;20.30;47.90
33564;DHT22;19894;48.452;11.494;2022-09-27T16:27:43;20.30;47.50
33564;DHT22;19894;48.452;11.494;2022-09-27T16:30:12;20.30;47.50
33564;DHT22;19894;48.452;11.494;2022-09-27T16:32:42;20.30;48.00
33564;DHT22;19894;48.452;11.494;2022-09-27T16:35:09;20.30;47.60
33564;DHT22;19894;48.452;11.494;2022-09-27T16:37:35;20.30;47.40
33564;DHT22;19894;48.452;11.494;2022-09-27T16:40:02;20.30;47.20
33564;DHT22;19894;48.452;11.494;2022-09-27T16:42:28;20.30;47.10
33564;DHT22;19894;48.452;11.494;2022-09-27T16:44:54;20.30;47.10
33564;DHT22;19894;48.452;11.494;2022-09-27T16:47:20;20.30;47.20
33564;DHT22;19894;48.452;11.494;2022-09-27T16:49:46;20.30;47.30
33564;DHT22;19894;48.452;11.494;2022-09-27T16:52:30;20.30;47.20
33564;DHT22;19894;48.452;11.494;2022-09-27T16:54:59;20.30;47.20
33564;DHT22;19894;48.452;11.494;2022-09-27T16:57:26;20.40;47.20
33564;DHT22;19894;48.452;11.494;2022-09-27T16:59:54;20.30;47.20
33564;DHT22;19894;48.452;11.494;2022-09-27T17:02:23;20.30;47.30
33564;DHT22;19894;48.452;11.494;2022-09-27T17:04:49;20.30;47.40
33564;DHT22;19894;48.452;11.494;2022-09-27T17:07:15;20.30;47.50
33564;DHT22;19894;48.452;11.494;2022-09-27T17:09:41;20.30;47.70
33564;DHT22;19894;48.452;11.494;2022-09-27T17:12:06;20.30;47.70
33564;DHT22;19894;48.452;11.494;2022-09-27T17:14:32;20.30;47.70
33564;DHT22;19894;48.452;11.494;2022-09-27T17:16:58;20.30;47.50
33564;DHT22;19894;48.452;11.494;2022-09-27T17:19:23;20.30;47.60
33564;DHT22;19894;48.452;11.494;2022-09-27T17:21:49;20.30;47.50
33564;DHT22;19894;48.452;11.494;2022-09-27T17:24:15;20.30;47.40
33564;DHT22;19894;48.452;11.494;2022-09-27T17:26:41;20.30;47.50
33564;DHT22;19894;48.452;11.494;2022-09-27T17:29:09;20.30;47.60
33564;DHT22;19894;48.452;11.494;2022-09-27T17:31:37;20.30;47.60
33564;DHT22;19894;48.452;11.494;2022-09-27T17:34:04;20.30;47.30
33564;DHT22;19894;48.452;11.494;2022-09-27T17:36:31;20.30;47.40
33564;DHT22;19894;48.452;11.494;2022-09-27T17:39:00;20.30;47.50
33564;DHT22;19894;48.452;11.494;2022-09-27T17:41:27;20.30;47.50
33564;DHT22;19894;48.452;11.494;2022-09-27T17:43:55;20.30;47.30
33564;DHT22;19894;48.452;11.494;2022-09-27T17:46:30;20.30;47.00
33564;DHT22;19894;48.452;11.494;2022-09-27T17:48:56;20.30;46.90
33564;DHT22;19894;48.452;11.494;2022-09-27T17:51:44;20.30;46.80
33564;DHT22;19894;48.452;11.494;2022-09-27T17:54:10;20.30;46.80
33564;DHT22;19894;48.452;11.494;2022-09-27T17:56:36;20.30;46.90
33564;DHT22;19894;48.452;11.494;2022-09-27T17:59:03;20.30;46.80